Time;durP1;ratioP1;P1;durP2;ratioP2;P2;SDS_P1;SDS_P2;PMS_P1;PMS_P2;Temp;Humidity;BMP_temperature;BMP_pressure;BME280_temperature;BME280_humidity;BME280_pressure;Samples;Min_cycle;Max_cycle;Signal;HPM_P1;HPM_P2
2023/01/16 00:01:01;;;;;;;10.07;3.15;;;4.40;99.90;;;;;;5088264;28;20043;-60
2023/01/16 00:03:27;;;;;;;6.15;2.53;;;4.40;99.90;;;;;;5095910;28;20036;-60
2023/01/16 00:05:52;;;;;;;6.28;2.55;;;4.50;99.90;;;;;;5093006;28;20035;-59
2023/01/16 00:08:18;;;;;;;8.20;2.70;;;4.40;99.90;;;;;;5096256;28;20444;-60
2023/01/16 00:10:44;;;;;;;5.03;2.30;;;4.50;99.90;;;;;;5076170;28;20027;-60
2023/01/16 00:13:12;;;;;;;3.70;1.60;;;4.50;99.90;;;;;;5095329;28;20427;-58
2023/01/16 00:15:37;;;;;;;6.22;2.88;;;4.60;99.90;;;;;;5087938;28;20047;-58
2023/01/16 00:18:03;;;;;;;6.88;3.08;;;4.50;99.90;;;;;;5095262;28;20043;-57
2023/01/16 00:20:29;;;;;;;6.60;2.70;;;4.60;99.90;;;;;;5092996;28;20032;-58
2023/01/16 00:22:55;;;;;;;5.93;2.42;;;4.60;99.90;;;;;;5088280;28;20028;-59
2023/01/16 00:25:20;;;;;;;4.60;2.50;;;4.60;99.90;;;;;;5098274;28;20043;-61
2023/01/16 00:27:46;;;;;;;7.40;2.15;;;4.60;99.90;;;;;;5090769;28;20059;-57
2023/01/16 00:30:11;;;;;;;10.40;3.30;;;4.60;99.90;;;;;;5092046;28;20301;-59
2023/01/16 00:32:37;;;;;;;6.90;2.60;;;4.60;99.90;;;;;;5076744;28;20041;-59
2023/01/16 00:35:03;;;;;;;5.65;2.92;;;4.60;99.90;;;;;;5090647;28;20036;-58
2023/01/16 00:37:29;;;;;;;7.70;2.83;;;4.70;99.90;;;;;;5090742;28;20094;-59
2023/01/16 00:39:54;;;;;;;8.38;3.00;;;4.60;99.90;;;;;;5095788;28;20044;-58
2023/01/16 00:42:20;;;;;;;6.35;1.88;;;4.60;99.90;;;;;;5101460;28;20135;-60
2023/01/16 00:44:48;;;;;;;8.30;2.60;;;4.60;99.90;;;;;;5086900;28;20456;-57
2023/01/16 00:47:14;;;;;;;8.15;2.97;;;4.60;99.90;;;;;;5093393;28;20035;-57
2023/01/16 00:49:40;;;;;;;7.70;2.63;;;4.70;99.90;;;;;;5092459;28;20137;-58
2023/01/16 00:52:05;;;;;;;7.75;2.85;;;4.70;99.90;;;;;;5093869;28;20119;-57
2023/01/16 00:54:31;;;;;;;7.13;2.60;;;4.70;99.90;;;;;;5093637;28;20360;-57
2023/01/16 00:56:56;;;;;;;7.95;2.65;;;4.80;99.90;;;;;;5100799;28;20028;-57
2023/01/16 00:59:22;;;;;;;5.72;2.47;;;4.70;99.90;;;;;;5087343;28;20444;-59
2023/01/16 01:01:47;;;;;;;5.78;2.00;;;4.80;99.90;;;;;;5090444;28;20035;-58
2023/01/16 01:04:13;;;;;;;9.88;2.70;;;4.70;99.90;;;;;;5099146;28;20051;-59
2023/01/16 01:06:39;;;;;;;6.65;3.05;;;4.70;99.90;;;;;;5092906;28;20039;-59
2023/01/16 01:09:05;;;;;;;6.57;1.92;;;4.70;99.90;;;;;;5075055;28;20040;-59
2023/01/16 01:11:30;;;;;;;8.07;2.50;;;4.70;99.90;;;;;;5093066;28;20043;-61
2023/01/16 01:13:56;;;;;;;7.25;2.72;;;4.80;99.90;;;;;;5091705;28;20115;-58
2023/01/16 01:16:22;;;;;;;7.55;2.70;;;4.80;99.90;;;;;;5089826;28;20027;-58
2023/01/16 01:18:48;;;;;;;8.30;2.95;;;4.70;99.90;;;;;;5094231;28;20471;-58
2023/01/16 01:21:14;;;;;;;9.48;2.53;;;4.70;99.90;;;;;;5074938;28;20039;-59
2023/01/16 01:23:39;;;;;;;8.85;2.92;;;4.80;99.90;;;;;;5091873;28;20443;-60
2023/01/16 01:26:07;;;;;;;5.32;2.42;;;4.80;99.90;;;;;;5094864;28;20532;-58
2023/01/16 01:28:38;;;;;;;11.30;2.67;;;4.80;99.90;;;;;;5073042;28;20067;-59
2023/01/16 01:31:06;;;;;;;7.13;1.80;;;4.80;99.90;;;;;;5087247;28;20039;-58
2023/01/16 01:33:31;;;;;;;7.18;2.70;;;4.70;99.90;;;;;;5092102;28;20453;-61
2023/01/16 01:35:57;;;;;;;6.07;2.47;;;4.80;99.90;;;;;;5093035;28;20230;-60
2023/01/16 01:38:22;;;;;;;9.40;2.65;;;4.80;99.90;;;;;;5099019;28;20143;-58
2023/01/16 01:40:48;;;;;;;7.00;2.53;;;4.70;99.90;;;;;;5069048;28;20079;-59
2023/01/16 01:43:15;;;;;;;6.32;2.05;;;4.80;99.90;;;;;;5090180;28;20386;-58
2023/01/16 01:45:54;;;;;;;7.70;2.55;;;4.70;99.90;;;;;;5097343;28;20452;-60
2023/01/16 01:48:33;;;;;;;6.97;2.53;;;4.80;99.90;;;;;;5096399;28;20476;-58
2023/01/16 01:51:03;;;;;;;8.40;3.10;;;4.80;99.90;;;;;;5090299;28;20444;-60
2023/01/16 01:53:37;;;;;;;7.32;2.53;;;4.80;99.90;;;;;;5065405;28;20075;-58
2023/01/16 01:56:13;;;;;;;6.93;2.75;;;4.80;99.90;;;;;;5088985;28;20035;-59
2023/01/16 01:58:39;;;;;;;8.70;3.00;;;4.80;99.90;;;;;;5094827;28;20031;-57
2023/01/16 02:01:05;;;;;;;7.03;2.45;;;4.80;99.90;;;;;;5087909;28;20113;-58
2023/01/16 02:03:36;;;;;;;5.80;2.25;;;4.80;99.90;;;;;;5094390;28;20431;-59
2023/01/16 02:06:07;;;;;;;7.63;2.95;;;4.80;99.90;;;;;;5089792;28;20345;-59
2023/01/16 02:08:35;;;;;;;8.10;2.90;;;4.60;99.90;;;;;;5094033;28;20043;-58
2023/01/16 02:11:03;;;;;;;5.30;2.20;;;4.60;99.90;;;;;;5094887;28;20453;-59
2023/01/16 02:13:29;;;;;;;7.57;2.90;;;4.60;99.90;;;;;;5091883;28;20028;-59
2023/01/16 02:21:50;;;;;;;10.32;3.25;;;4.50;99.90;;;;;;5087062;28;20078;-60
2023/01/16 02:24:43;;;;;;;7.13;2.78;;;4.40;99.90;;;;;;5085749;28;20471;-57
2023/01/16 02:27:19;;;;;;;6.50;1.90;;;4.40;99.90;;;;;;5072326;28;20047;-58
2023/01/16 02:30:13;;;;;;;6.40;3.25;;;4.40;99.90;;;;;;5084744;28;20476;-58
2023/01/16 02:32:50;;;;;;;7.57;3.10;;;4.40;99.90;;;;;;5088130;28;20092;-60
2023/01/16 02:35:33;;;;;;;6.35;2.70;;;4.40;99.90;;;;;;5089236;28;20059;-55
2023/01/16 02:38:17;;;;;;;4.78;2.05;;;4.30;99.90;;;;;;5088875;28;20151;-61
2023/01/16 02:41:02;;;;;;;5.80;3.05;;;4.30;99.90;;;;;;5097663;28;20054;-58
2023/01/16 02:43:34;;;;;;;5.35;2.88;;;4.40;99.90;;;;;;5093020;28;20040;-58
2023/01/16 02:46:11;;;;;;;6.85;3.47;;;4.40;99.90;;;;;;5101219;28;20044;-60
2023/01/16 02:48:52;;;;;;;6.35;2.40;;;4.40;99.90;;;;;;5097633;28;20418;-60
2023/01/16 02:51:25;;;;;;;6.32;3.20;;;4.50;99.90;;;;;;5074816;28;20036;-59
2023/01/16 02:54:02;;;;;;;7.50;3.70;;;4.40;99.90;;;;;;5076796;28;20098;-61
2023/01/16 02:56:41;;;;;;;6.85;2.67;;;4.50;99.90;;;;;;5091022;28;20451;-59
2023/01/16 02:59:08;;;;;;;9.07;3.75;;;4.50;99.90;;;;;;5089008;28;20040;-58
2023/01/16 03:01:35;;;;;;;8.90;4.20;;;4.50;99.90;;;;;;5096984;28;20055;-58
2023/01/16 03:04:01;;;;;;;6.57;3.88;;;4.60;99.90;;;;;;5094951;28;20036;-56
2023/01/16 03:06:49;;;;;;;6.47;3.53;;;4.70;99.90;;;;;;5098266;28;20042;-56
2023/01/16 03:09:40;;;;;;;10.38;4.70;;;4.60;99.90;;;;;;5092676;28;20032;-56
2023/01/16 03:12:24;;;;;;;9.23;4.90;;;4.70;99.90;;;;;;5092589;28;20040;-61
2023/01/16 03:15:05;;;;;;;7.78;4.43;;;4.60;99.90;;;;;;5088764;28;20119;-60
2023/01/16 03:17:33;;;;;;;7.25;4.47;;;4.70;99.90;;;;;;5093055;28;20352;-57
2023/01/16 03:20:23;;;;;;;7.07;3.05;;;4.70;99.90;;;;;;5096659;28;20039;-57
2023/01/16 03:22:53;;;;;;;8.50;4.70;;;4.60;99.90;;;;;;5089991;28;20068;-59
2023/01/16 03:25:34;;;;;;;9.07;4.75;;;4.70;99.90;;;;;;5096350;28;20047;-57
2023/01/16 03:28:16;;;;;;;9.02;5.57;;;4.80;99.90;;;;;;5094989;28;20360;-57
2023/01/16 03:31:35;;;;;;;7.93;4.95;;;4.70;99.90;;;;;;5096885;28;20059;-58
2023/01/16 03:34:20;;;;;;;11.20;6.13;;;4.70;99.90;;;;;;5077096;28;20131;-59
2023/01/16 03:37:13;;;;;;;9.85;6.55;;;4.70;99.90;;;;;;5094177;28;20118;-59
2023/01/16 03:39:43;;;;;;;9.48;4.28;;;4.70;99.90;;;;;;5087191;28;20059;-58
2023/01/16 03:42:16;;;;;;;9.50;6.75;;;4.70;99.90;;;;;;5073710;28;20059;-58
2023/01/16 03:44:49;;;;;;;10.40;4.55;;;4.80;99.90;;;;;;5088153;28;20054;-57
2023/01/16 03:47:24;;;;;;;8.95;6.88;;;4.80;99.90;;;;;;5099755;28;20082;-60
2023/01/16 03:49:54;;;;;;;9.90;5.30;;;4.70;99.90;;;;;;5086165;28;20036;-60
2023/01/16 03:52:24;;;;;;;11.50;8.20;;;4.70;99.90;;;;;;5100132;28;20058;-60
2023/01/16 03:55:08;;;;;;;12.52;8.30;;;4.80;99.90;;;;;;5094519;28;20515;-61
2023/01/16 03:57:54;;;;;;;12.00;8.40;;;4.80;99.90;;;;;;5092451;28;20367;-59
2023/01/16 04:00:21;;;;;;;10.13;5.65;;;4.80;99.90;;;;;;5096046;28;20434;-60
2023/01/16 04:02:55;;;;;;;12.00;8.85;;;4.80;99.90;;;;;;5097258;28;20444;-60
2023/01/16 04:05:48;;;;;;;12.68;9.13;;;4.80;99.90;;;;;;5099505;28;20039;-60
2023/01/16 04:08:28;;;;;;;12.82;8.70;;;4.80;99.90;;;;;;5089475;28;20370;-57
2023/01/16 04:10:54;;;;;;;12.18;9.40;;;4.80;99.90;;;;;;5092927;28;20065;-59
2023/01/16 04:13:26;;;;;;;12.00;10.02;;;4.90;99.90;;;;;;5094147;28;20046;-59
2023/01/16 04:15:55;;;;;;;14.25;10.20;;;4.90;99.90;;;;;;5090038;28;20028;-59
2023/01/16 04:18:24;;;;;;;12.63;10.00;;;4.90;99.90;;;;;;5096759;28;20044;-60
2023/01/16 04:20:50;;;;;;;14.00;9.77;;;4.90;99.90;;;;;;5094974;28;20051;-61
2023/01/16 04:23:16;;;;;;;13.15;10.55;;;4.80;99.90;;;;;;5087700;28;20129;-59
2023/01/16 04:25:42;;;;;;;17.08;10.77;;;4.80;99.90;;;;;;5091513;28;20060;-60
2023/01/16 04:28:07;;;;;;;15.23;11.48;;;4.80;99.90;;;;;;5093798;28;20035;-59
2023/01/16 04:30:33;;;;;;;14.93;7.13;;;4.80;99.90;;;;;;5053780;28;20170;-58
2023/01/16 04:33:03;;;;;;;14.70;10.95;;;4.80;99.90;;;;;;5090626;28;20040;-58
2023/01/16 04:35:29;;;;;;;16.48;12.07;;;4.70;99.90;;;;;;5096160;28;20024;-58
2023/01/16 04:37:55;;;;;;;14.23;11.02;;;4.70;99.90;;;;;;5088121;28;20116;-59
2023/01/16 04:40:20;;;;;;;14.15;7.93;;;4.70;99.90;;;;;;5087953;28;20091;-60
2023/01/16 04:42:46;;;;;;;16.20;11.55;;;4.60;99.90;;;;;;5076623;28;20040;-56
2023/01/16 04:45:12;;;;;;;18.25;11.40;;;4.60;99.90;;;;;;5087470;28;20411;-60
2023/01/16 04:47:37;;;;;;;13.45;10.50;;;4.50;99.90;;;;;;5095820;28;20044;-58
2023/01/16 04:50:03;;;;;;;14.73;11.57;;;4.50;99.90;;;;;;5082535;28;20138;-59
2023/01/16 04:52:28;;;;;;;11.68;7.38;;;4.40;99.90;;;;;;5094661;28;20141;-59
2023/01/16 04:54:54;;;;;;;14.25;10.88;;;4.40;99.90;;;;;;5091483;28;20071;-59
2023/01/16 04:57:20;;;;;;;15.77;10.02;;;4.20;99.90;;;;;;5094729;28;20073;-60
2023/01/16 04:59:45;;;;;;;13.43;9.50;;;4.30;99.90;;;;;;5088422;28;20040;-58
2023/01/16 05:02:11;;;;;;;15.70;10.10;;;4.20;99.90;;;;;;5099689;28;20032;-58
2023/01/16 05:04:36;;;;;;;12.98;9.65;;;4.20;99.90;;;;;;5072007;28;20032;-60
2023/01/16 05:07:02;;;;;;;14.05;9.40;;;4.00;99.90;;;;;;5087393;28;20368;-58
2023/01/16 05:09:27;;;;;;;11.00;5.70;;;4.10;99.90;;;;;;5091371;28;20040;-60
2023/01/16 05:11:53;;;;;;;13.57;8.90;;;4.00;99.90;;;;;;5093923;28;20116;-58
2023/01/16 05:14:18;;;;;;;14.07;8.30;;;4.00;99.90;;;;;;5093104;28;20059;-60
2023/01/16 05:16:44;;;;;;;15.07;8.10;;;3.90;99.90;;;;;;5090051;28;20039;-58
2023/01/16 05:19:10;;;;;;;12.55;7.07;;;4.10;99.90;;;;;;5092015;28;20043;-58
2023/01/16 05:21:36;;;;;;;12.98;6.85;;;4.10;99.90;;;;;;5073797;28;20048;-60
2023/01/16 05:24:01;;;;;;;14.27;4.50;;;4.10;99.90;;;;;;5090943;28;20419;-60
2023/01/16 05:26:27;;;;;;;11.93;6.47;;;4.10;99.90;;;;;;5093380;28;20032;-58
2023/01/16 05:28:52;;;;;;;9.55;6.18;;;4.10;99.90;;;;;;5090470;28;20035;-58
2023/01/16 05:31:18;;;;;;;8.27;4.40;;;4.00;99.90;;;;;;5089507;28;20067;-60
2023/01/16 05:33:44;;;;;;;9.63;5.22;;;4.00;99.90;;;;;;5091498;28;20047;-60
2023/01/16 05:36:09;;;;;;;10.52;5.28;;;4.10;99.90;;;;;;5074174;28;20436;-59
2023/01/16 05:38:35;;;;;;;12.40;3.80;;;4.10;99.90;;;;;;5093448;28;20048;-56
2023/01/16 05:41:01;;;;;;;11.93;5.60;;;4.00;99.90;;;;;;5074367;28;20189;-56
2023/01/16 05:43:26;;;;;;;13.07;5.90;;;4.00;99.90;;;;;;5090341;28;20122;-57
2023/01/16 05:45:52;;;;;;;10.10;4.50;;;3.90;99.90;;;;;;5097417;28;20035;-59
2023/01/16 05:48:18;;;;;;;9.05;5.30;;;3.90;99.90;;;;;;5092679;28;20044;-60
2023/01/16 05:50:43;;;;;;;14.00;5.50;;;3.90;99.90;;;;;;5087865;28;20131;-58
2023/01/16 05:53:09;;;;;;;10.38;4.80;;;3.90;99.90;;;;;;5085737;28;20353;-58
2023/01/16 05:55:44;;;;;;;6.55;3.10;;;3.90;99.90;;;;;;5096854;28;20032;-59
2023/01/16 05:58:11;;;;;;;11.05;5.55;;;3.90;99.90;;;;;;5073310;28;21104;-60
2023/01/16 06:00:38;;;;;;;9.75;4.90;;;3.80;99.90;;;;;;5090361;28;20094;-60
2023/01/16 06:03:07;;;;;;;9.45;4.75;;;3.80;99.90;;;;;;5090398;28;20044;-59
2023/01/16 06:05:32;;;;;;;5.78;2.83;;;3.90;99.90;;;;;;5091743;28;20027;-60
2023/01/16 06:07:58;;;;;;;13.52;4.93;;;3.80;99.90;;;;;;5087482;28;20527;-60
2023/01/16 06:10:25;;;;;;;7.28;4.60;;;3.80;99.90;;;;;;5090344;28;20030;-60
2023/01/16 06:12:51;;;;;;;10.38;3.15;;;3.70;99.90;;;;;;5096845;28;20079;-58
2023/01/16 06:15:16;;;;;;;9.10;4.30;;;3.80;99.90;;;;;;5092793;28;20461;-60
2023/01/16 06:17:42;;;;;;;9.27;4.00;;;3.80;99.90;;;;;;5099932;28;20045;-59
2023/01/16 06:20:09;;;;;;;5.20;2.47;;;3.70;99.90;;;;;;5095014;28;20037;-60
2023/01/16 06:22:35;;;;;;;11.23;4.45;;;3.80;99.90;;;;;;5100258;28;20044;-60
2023/01/16 06:25:00;;;;;;;9.57;3.97;;;3.80;99.90;;;;;;5094444;28;20036;-57
2023/01/16 06:27:26;;;;;;;11.65;4.30;;;3.70;99.90;;;;;;5095658;28;20048;-59
2023/01/16 06:29:52;;;;;;;7.85;3.42;;;3.80;99.90;;;;;;5080081;28;20050;-59
2023/01/16 06:32:19;;;;;;;8.52;4.15;;;3.80;99.90;;;;;;5102528;28;20043;-60
2023/01/16 06:34:45;;;;;;;10.13;4.03;;;3.80;99.90;;;;;;5105887;28;20027;-60
2023/01/16 06:37:11;;;;;;;9.70;2.55;;;3.70;99.90;;;;;;5094969;28;20047;-58
2023/01/16 06:39:37;;;;;;;10.98;4.07;;;3.80;99.90;;;;;;5070465;28;20056;-59
2023/01/16 06:42:04;;;;;;;10.60;4.30;;;3.70;99.90;;;;;;5070146;28;20139;-60
2023/01/16 06:44:31;;;;;;;9.60;3.80;;;3.70;99.90;;;;;;5070199;28;20037;-60
2023/01/16 06:46:56;;;;;;;8.52;3.60;;;3.70;99.90;;;;;;5070212;28;20041;-59
2023/01/16 06:49:22;;;;;;;7.95;3.53;;;3.70;99.90;;;;;;5068630;28;20442;-57
2023/01/16 06:51:47;;;;;;;7.95;2.78;;;3.70;99.90;;;;;;5070534;28;20040;-60
2023/01/16 06:54:13;;;;;;;10.13;3.58;;;3.70;99.90;;;;;;5068021;28;20033;-59
2023/01/16 06:56:38;;;;;;;8.23;2.40;;;3.80;99.90;;;;;;5072319;28;20040;-58
2023/01/16 06:59:04;;;;;;;9.15;3.72;;;3.70;99.90;;;;;;5073418;28;20047;-59
2023/01/16 07:01:30;;;;;;;7.85;3.33;;;3.70;99.90;;;;;;5023007;28;20044;-60
2023/01/16 07:03:57;;;;;;;7.50;2.28;;;3.80;99.90;;;;;;5070919;28;20052;-59
2023/01/16 07:06:24;;;;;;;8.73;3.83;;;3.70;99.90;;;;;;5016467;28;20048;-58
2023/01/16 07:08:50;;;;;;;8.48;3.33;;;3.60;99.90;;;;;;5072064;28;20044;-61
2023/01/16 07:11:17;;;;;;;5.35;2.08;;;3.60;99.90;;;;;;5068490;28;20040;-58
2023/01/16 07:13:42;;;;;;;10.48;3.53;;;3.70;99.90;;;;;;5069508;28;20452;-58
2023/01/16 07:24:30;;;;;;;5.45;1.80;;;3.70;99.90;;;;;;5070311;28;20060;-61
2023/01/16 07:26:59;;;;;;;8.85;3.33;;;3.70;99.90;;;;;;5068710;28;20083;-58
2023/01/16 07:29:27;;;;;;;9.82;3.08;;;3.80;99.90;;;;;;5063839;28;20132;-59
2023/01/16 07:31:53;;;;;;;8.57;3.38;;;3.90;99.90;;;;;;5068206;28;20123;-58
2023/01/16 07:34:18;;;;;;;6.00;2.40;;;3.90;99.90;;;;;;5068313;28;20148;-60
2023/01/16 07:36:44;;;;;;;8.18;3.03;;;4.00;99.90;;;;;;5072992;28;20424;-60
2023/01/16 07:39:10;;;;;;;7.95;3.05;;;3.90;99.90;;;;;;5064740;28;20055;-60
2023/01/16 07:41:35;;;;;;;8.50;2.30;;;3.90;99.90;;;;;;5090905;28;20201;-60
2023/01/16 07:44:01;;;;;;;8.23;2.95;;;3.90;99.90;;;;;;5102218;28;20080;-58
2023/01/16 07:46:26;;;;;;;9.00;3.72;;;4.00;99.90;;;;;;5088844;28;20047;-58
2023/01/16 07:48:53;;;;;;;10.43;3.45;;;4.00;99.90;;;;;;5097212;28;20043;-60
2023/01/16 07:51:19;;;;;;;10.05;3.83;;;4.10;99.90;;;;;;5092671;28;20091;-59
2023/01/16 07:53:44;;;;;;;6.00;2.38;;;4.10;99.90;;;;;;5097027;28;20031;-59
2023/01/16 07:56:10;;;;;;;9.65;3.80;;;4.10;99.90;;;;;;5097139;28;20338;-60
2023/01/16 07:58:37;;;;;;;7.00;3.15;;;4.20;99.90;;;;;;5090143;28;20527;-59
2023/01/16 08:01:05;;;;;;;10.95;3.22;;;4.20;99.90;;;;;;5092655;28;20490;-59
2023/01/16 08:03:31;;;;;;;8.80;3.65;;;4.20;99.90;;;;;;5092157;28;20074;-60
2023/01/16 08:05:57;;;;;;;9.52;4.20;;;4.20;99.90;;;;;;5082031;28;20043;-60
2023/01/16 08:08:25;;;;;;;7.88;2.67;;;4.20;99.90;;;;;;5088586;28;20127;-59
2023/01/16 08:10:54;;;;;;;9.27;4.13;;;4.30;99.90;;;;;;5095596;28;20035;-61
2023/01/16 08:13:19;;;;;;;7.97;4.60;;;4.20;99.90;;;;;;5070379;28;20040;-61
2023/01/16 08:15:45;;;;;;;8.00;2.95;;;4.30;99.90;;;;;;5095496;28;20035;-61
2023/01/16 08:18:12;;;;;;;8.77;3.78;;;4.30;99.90;;;;;;5100595;28;20040;-61
2023/01/16 08:20:37;;;;;;;10.05;4.13;;;4.40;99.90;;;;;;5093297;28;20091;-61
2023/01/16 08:23:03;;;;;;;7.07;2.92;;;4.40;99.90;;;;;;5084919;28;20461;-61
2023/01/16 08:25:29;;;;;;;8.93;4.90;;;4.40;99.90;;;;;;5091770;28;20456;-60
2023/01/16 08:27:54;;;;;;;10.05;4.45;;;4.30;99.90;;;;;;5092230;28;20075;-60
2023/01/16 08:30:20;;;;;;;9.35;4.30;;;4.40;99.90;;;;;;5091728;28;20024;-62
2023/01/16 08:32:46;;;;;;;8.95;4.25;;;4.40;99.90;;;;;;5095175;28;20063;-58
2023/01/16 08:35:11;;;;;;;7.90;3.25;;;4.40;99.90;;;;;;5091670;28;20028;-60
2023/01/16 08:37:37;;;;;;;7.75;4.13;;;4.40;99.90;;;;;;5090410;28;20461;-60
2023/01/16 08:40:04;;;;;;;6.13;3.33;;;4.30;99.90;;;;;;5087268;28;20036;-59
2023/01/16 08:53:32;;;;;;;8.02;4.20;;;4.40;99.90;;;;;;5088284;28;20116;-61
2023/01/16 08:55:58;;;;;;;8.07;2.83;;;4.40;99.90;;;;;;5094617;28;20352;-61
2023/01/16 08:58:23;;;;;;;6.38;3.97;;;4.40;99.90;;;;;;5089893;28;20036;-59
2023/01/16 09:00:50;;;;;;;6.97;3.65;;;4.40;99.90;;;;;;5073592;28;20528;-60
2023/01/16 09:03:18;;;;;;;8.35;3.95;;;4.40;99.90;;;;;;5098138;28;20036;-59
2023/01/16 09:05:44;;;;;;;6.95;3.38;;;4.30;99.90;;;;;;5074350;28;20093;-59
2023/01/16 09:08:10;;;;;;;7.72;3.25;;;4.40;99.90;;;;;;5092493;28;20043;-57
2023/01/16 09:10:36;;;;;;;7.40;3.40;;;4.40;99.90;;;;;;5087514;28;20024;-60
2023/01/16 09:15:46;;;;;;;6.43;3.28;;;4.40;99.90;;;;;;5088083;28;20119;-59
2023/01/16 09:18:11;;;;;;;4.95;3.03;;;4.30;99.90;;;;;;5092994;28;20055;-59
2023/01/16 09:20:37;;;;;;;5.30;2.50;;;4.40;99.90;;;;;;5091204;28;20043;-59
2023/01/16 09:23:04;;;;;;;4.85;2.15;;;4.50;99.90;;;;;;5072018;28;20107;-59
2023/01/16 09:25:32;;;;;;;6.00;2.90;;;4.40;99.90;;;;;;5047070;28;20079;-59
2023/01/16 09:28:01;;;;;;;8.10;2.97;;;4.40;99.90;;;;;;5077230;28;20044;-59
2023/01/16 09:30:27;;;;;;;5.20;1.73;;;4.50;99.90;;;;;;5092176;28;20040;-57
2023/01/16 09:32:53;;;;;;;5.10;2.83;;;4.30;99.90;;;;;;5096983;28;20110;-58
2023/01/16 09:35:19;;;;;;;6.72;2.35;;;4.40;99.90;;;;;;5094584;28;20118;-58
2023/01/16 09:37:45;;;;;;;2.88;1.48;;;4.50;99.90;;;;;;5087566;28;20032;-57
2023/01/16 09:40:19;;;;;;;5.00;2.45;;;4.40;99.90;;;;;;5088908;28;20348;-57
2023/01/16 09:45:47;;;;;;;7.65;2.55;;;4.50;99.90;;;;;;5087001;28;20046;-58
2023/01/16 09:48:28;;;;;;;6.85;1.70;;;4.50;99.90;;;;;;5096118;28;20344;-60
2023/01/16 09:50:57;;;;;;;5.75;2.53;;;4.40;99.90;;;;;;5089603;28;20440;-60
2023/01/16 09:59:43;;;;;;;2.55;1.38;;;4.40;99.90;;;;;;5087836;28;20055;-59
2023/01/16 10:02:23;;;;;;;4.00;1.15;;;4.30;99.90;;;;;;5087469;28;20028;-59
2023/01/16 10:04:51;;;;;;;4.63;1.80;;;4.30;99.90;;;;;;5079277;28;20448;-59
2023/01/16 10:07:48;;;;;;;3.20;1.40;;;4.30;99.90;;;;;;5091224;28;20503;-58
2023/01/16 10:10:38;;;;;;;4.05;1.70;;;4.20;99.90;;;;;;5087470;28;20047;-59
2023/01/16 10:13:29;;;;;;;3.72;1.60;;;4.20;99.90;;;;;;5065558;28;20048;-60
2023/01/16 10:16:18;;;;;;;3.50;1.50;;;4.20;99.90;;;;;;5091445;28;20039;-59
2023/01/16 10:18:58;;;;;;;3.10;1.67;;;4.10;99.90;;;;;;5085173;28;20449;-59
2023/01/16 10:21:45;;;;;;;4.82;1.85;;;4.10;99.90;;;;;;5086766;28;20035;-57
2023/01/16 10:24:14;;;;;;;5.03;1.63;;;4.20;99.90;;;;;;5084939;28;20435;-57
2023/01/16 10:27:04;;;;;;;3.38;1.30;;;4.10;99.90;;;;;;5093954;28;20050;-57
2023/01/16 10:29:52;;;;;;;3.83;1.98;;;4.10;99.90;;;;;;5092353;28;20109;-57
2023/01/16 10:32:44;;;;;;;4.03;1.60;;;4.10;99.90;;;;;;5064730;28;20086;-58
2023/01/16 10:35:27;;;;;;;3.63;1.60;;;4.10;99.90;;;;;;5087623;28;20082;-59
2023/01/16 10:37:55;;;;;;;2.67;1.88;;;4.10;99.90;;;;;;5087885;28;20082;-58
2023/01/16 10:40:27;;;;;;;3.05;2.08;;;4.10;99.90;;;;;;5091867;28;20139;-58
2023/01/16 10:51:27;;;;;;;3.58;2.00;;;4.00;99.90;;;;;;5086732;28;20044;-59
2023/01/16 10:53:53;;;;;;;2.22;1.40;;;4.00;99.90;;;;;;5095983;28;20032;-61
2023/01/16 10:56:19;;;;;;;3.95;2.15;;;4.10;99.90;;;;;;5069986;28;20365;-61
2023/01/16 10:58:44;;;;;;;3.20;2.05;;;4.20;99.90;;;;;;5095040;28;20455;-59
2023/01/16 11:01:16;;;;;;;2.22;1.80;;;4.20;99.90;;;;;;5091032;28;20101;-59
2023/01/16 11:03:51;;;;;;;5.43;2.50;;;4.10;99.90;;;;;;5102007;28;20059;-59
2023/01/16 11:06:22;;;;;;;4.10;2.10;;;4.20;99.90;;;;;;5096415;28;20052;-59
2023/01/16 11:08:52;;;;;;;5.70;2.40;;;4.20;99.90;;;;;;5090449;28;20039;-60
2023/01/16 11:20:03;;;;;;;4.90;2.00;;;4.20;99.90;;;;;;5105184;28;20168;-58
2023/01/16 11:22:29;;;;;;;4.75;2.20;;;4.20;99.90;;;;;;5101848;28;20078;-58
2023/01/16 11:24:58;;;;;;;5.20;2.45;;;4.20;99.90;;;;;;5107163;28;20081;-60
2023/01/16 11:27:31;;;;;;;4.68;1.80;;;4.20;99.90;;;;;;5111339;28;20110;-60
2023/01/16 11:29:57;;;;;;;3.72;1.95;;;4.40;99.90;;;;;;5100994;28;20484;-61
2023/01/16 11:32:27;;;;;;;6.38;3.40;;;4.30;99.90;;;;;;5089859;28;20067;-59
2023/01/16 11:34:56;;;;;;;4.32;2.45;;;4.30;99.90;;;;;;5089387;28;20111;-59
2023/01/16 11:37:28;;;;;;;5.88;2.55;;;4.40;99.90;;;;;;5092116;28;20063;-59
2023/01/16 11:39:56;;;;;;;4.50;2.30;;;4.50;99.90;;;;;;5093413;28;20048;-59
2023/01/16 11:48:23;;;;;;;4.28;2.40;;;4.50;99.90;;;;;;5089958;28;20059;-61
2023/01/16 11:50:51;;;;;;;4.10;2.67;;;4.40;99.90;;;;;;5084466;28;20088;-59
2023/01/16 11:53:16;;;;;;;5.45;2.50;;;4.60;99.90;;;;;;5073303;28;20055;-59
2023/01/16 11:56:22;;;;;;;4.72;2.70;;;4.60;99.90;;;;;;5099547;28;20431;-60
2023/01/16 11:59:08;;;;;;;6.05;2.13;;;4.50;99.90;;;;;;5090096;28;20047;-59
2023/01/16 12:05:53;;;;;;;4.13;2.70;;;4.60;99.90;;;;;;5095346;28;20460;-59
2023/01/16 12:08:06;;;;;;;5.45;3.10;;;4.70;99.90;;;;;;5105305;28;20371;-60
2023/01/16 12:10:42;;;;;;;3.63;2.10;;;4.60;99.90;;;;;;5104256;28;20393;-59
2023/01/16 12:16:17;;;;;;;4.80;2.60;;;4.70;99.90;;;;;;5109430;28;20198;-59
2023/01/16 12:19:10;;;;;;;2.70;1.90;;;4.80;99.90;;;;;;5094325;28;20043;-58
2023/01/16 12:21:57;;;;;;;3.88;2.10;;;4.60;99.90;;;;;;5091778;28;20166;-61
2023/01/16 12:24:31;;;;;;;5.68;2.53;;;4.60;99.90;;;;;;5088116;28;20037;-58
2023/01/16 12:27:13;;;;;;;5.80;2.60;;;4.70;99.90;;;;;;5091927;28;20086;-58
2023/01/16 12:30:05;;;;;;;4.85;2.58;;;4.70;99.90;;;;;;5087130;28;20055;-59
2023/01/16 12:33:11;;;;;;;5.53;2.25;;;4.70;99.90;;;;;;5093382;28;20101;-60
2023/01/16 12:35:54;;;;;;;4.28;2.15;;;4.80;99.90;;;;;;5069313;28;20029;-58
2023/01/16 12:38:27;;;;;;;7.53;2.70;;;4.70;99.90;;;;;;5090167;28;20185;-60
2023/01/16 12:44:09;;;;;;;4.35;2.47;;;4.80;99.90;;;;;;5093741;28;20122;-59
2023/01/16 12:47:01;;;;;;;4.85;2.30;;;4.70;99.90;;;;;;5090338;28;20170;-59
2023/01/16 12:49:48;;;;;;;4.03;2.35;;;4.80;99.90;;;;;;5086765;28;20101;-59
2023/01/16 12:52:33;;;;;;;5.10;2.95;;;4.80;99.90;;;;;;5087214;28;20067;-59
2023/01/16 12:55:25;;;;;;;6.18;3.00;;;4.90;99.90;;;;;;5090214;28;20067;-59
2023/01/16 12:58:04;;;;;;;3.75;2.08;;;4.90;99.90;;;;;;5090303;28;20502;-59
2023/01/16 13:00:40;;;;;;;4.43;2.90;;;4.80;99.90;;;;;;5069987;28;20068;-62
2023/01/16 13:03:21;;;;;;;4.80;2.63;;;4.90;99.90;;;;;;5082666;28;20401;-61
2023/01/16 13:05:48;;;;;;;4.80;2.30;;;4.90;99.90;;;;;;5086613;28;20368;-61
2023/01/16 13:08:13;;;;;;;4.78;2.40;;;4.90;99.90;;;;;;5092772;28;20098;-59
2023/01/16 13:13:37;;;;;;;4.07;2.15;;;5.00;99.90;;;;;;5085508;28;20095;-59
2023/01/16 13:16:10;;;;;;;3.55;2.30;;;5.00;99.90;;;;;;5090012;28;20129;-58
2023/01/16 13:18:58;;;;;;;4.78;1.98;;;5.10;99.90;;;;;;5091573;28;20543;-60
2023/01/16 13:21:28;;;;;;;2.67;1.80;;;5.10;99.90;;;;;;5087284;28;20032;-58
2023/01/16 13:24:16;;;;;;;4.68;2.35;;;5.00;99.90;;;;;;5091529;28;20111;-57
2023/01/16 13:26:46;;;;;;;4.55;1.98;;;5.10;99.90;;;;;;5091937;28;20212;-58
2023/01/16 13:29:46;;;;;;;3.88;2.17;;;5.20;99.90;;;;;;5091829;28;20043;-58
2023/01/16 13:32:28;;;;;;;2.58;1.70;;;5.00;99.90;;;;;;5057947;28;20048;-57
2023/01/16 13:35:04;;;;;;;2.88;1.95;;;5.20;99.90;;;;;;5090415;28;20036;-57
2023/01/16 13:37:57;;;;;;;4.82;2.10;;;5.20;99.90;;;;;;5086225;28;20028;-59
2023/01/16 13:41:15;;;;;;;4.20;2.25;;;5.10;99.90;;;;;;5075779;28;20048;-55
2023/01/16 13:46:32;;;;;;;2.63;1.70;;;5.30;99.90;;;;;;5089060;28;20137;-56
2023/01/16 13:49:01;;;;;;;3.70;1.92;;;5.10;99.90;;;;;;5099433;28;20055;-56
2023/01/16 13:51:27;;;;;;;3.58;1.80;;;5.20;99.90;;;;;;5091287;28;20036;-57
2023/01/16 13:54:02;;;;;;;4.35;2.33;;;5.20;99.90;;;;;;5097297;28;20146;-56
2023/01/16 13:56:30;;;;;;;3.83;2.15;;;5.20;99.90;;;;;;5087918;28;20035;-55
2023/01/16 13:59:02;;;;;;;4.35;1.52;;;5.20;99.90;;;;;;5094765;28;20368;-56
2023/01/16 14:01:42;;;;;;;2.97;1.80;;;5.20;99.90;;;;;;5070777;28;20032;-57
2023/01/16 14:04:14;;;;;;;6.25;3.13;;;5.30;99.90;;;;;;5084500;28;20353;-60
2023/01/16 14:06:48;;;;;;;5.07;2.40;;;5.20;99.90;;;;;;5089666;28;20484;-59
2023/01/16 14:09:17;;;;;;;3.80;2.35;;;5.30;99.90;;;;;;5085955;28;20047;-56
2023/01/16 14:12:20;;;;;;;4.35;1.90;;;5.30;99.90;;;;;;5088892;28;20105;-56
2023/01/16 14:17:52;;;;;;;3.10;1.63;;;5.20;99.90;;;;;;5085717;28;20046;-58
2023/01/16 14:20:42;;;;;;;4.60;2.17;;;5.20;99.90;;;;;;5090465;28;20760;-55
2023/01/16 14:26:08;;;;;;;6.25;3.53;;;5.20;99.90;;;;;;5084265;28;20055;-56
2023/01/16 14:28:34;;;;;;;5.40;2.00;;;5.20;99.90;;;;;;5094673;28;20115;-56
2023/01/16 14:31:02;;;;;;;4.68;1.80;;;5.20;99.90;;;;;;5088295;28;20124;-57
2023/01/16 14:33:29;;;;;;;4.20;1.90;;;5.10;99.90;;;;;;5074248;28;20357;-56
2023/01/16 14:35:57;;;;;;;4.90;2.20;;;5.30;99.90;;;;;;5082615;28;20074;-58
2023/01/16 14:38:31;;;;;;;3.05;1.60;;;5.20;99.90;;;;;;5089105;28;20056;-56